createdAt,value
2018-08-19T00:00:56.236Z,47.47
2018-08-19T00:03:00.763Z,32.93
2018-08-19T00:05:13.938Z,32.20
2018-08-19T00:07:17.047Z,32.67
2018-08-19T00:09:20.163Z,33.17
2018-08-19T00:11:23.300Z,44.37
2018-08-19T00:13:26.743Z,35.33
2018-08-19T00:15:29.859Z,29.53
2018-08-19T00:17:33.004Z,24.60
2018-08-19T00:19:36.132Z,33.90
2018-08-19T00:21:39.250Z,33.97
2018-08-19T00:23:47.882Z,27.43
2018-08-19T00:25:51.009Z,28.07
2018-08-19T00:27:54.165Z,32.90
2018-08-19T00:29:57.248Z,30.97
2018-08-19T00:32:00.999Z,38.97
2018-08-19T00:34:04.106Z,41.87
2018-08-19T00:36:24.427Z,34.00
2018-08-19T00:38:27.573Z,42.50
2018-08-19T00:40:30.897Z,42.13
2018-08-19T00:42:34.016Z,29.47
2018-08-19T00:44:37.128Z,35.30
2018-08-19T00:46:40.274Z,37.10
2018-08-19T00:48:43.400Z,34.83
2018-08-19T00:50:46.527Z,31.67
2018-08-19T00:52:49.868Z,33.77
2018-08-19T00:54:52.972Z,33.60
2018-08-19T00:56:58.063Z,32.50
2018-08-19T00:59:01.169Z,29.40
2018-08-19T01:01:04.272Z,38.97
2018-08-19T01:03:07.379Z,34.07
2018-08-19T01:05:10.567Z,36.77
2018-08-19T01:07:13.680Z,30.03
2018-08-19T01:09:16.815Z,45.87
2018-08-19T01:11:32.427Z,42.27
2018-08-19T01:13:35.540Z,30.83
2018-08-19T01:15:38.647Z,40.13
2018-08-19T01:17:42.726Z,39.70
2018-08-19T01:19:46.660Z,39.20
2018-08-19T01:21:51.342Z,34.83
2018-08-19T01:23:54.447Z,39.13
2018-08-19T01:25:57.551Z,52.23
2018-08-19T01:28:00.663Z,43.33
2018-08-19T01:30:09.559Z,39.80
2018-08-19T01:32:13.301Z,44.23
2018-08-19T01:34:16.404Z,37.47
2018-08-19T01:36:19.623Z,50.87
2018-08-19T01:38:22.725Z,40.87
2018-08-19T01:40:25.823Z,57.07
2018-08-19T01:42:28.931Z,39.00
2018-08-19T01:44:32.045Z,40.13
2018-08-19T01:46:39.508Z,46.53
2018-08-19T01:48:42.632Z,47.40
2018-08-19T01:50:45.751Z,52.33
2018-08-19T01:52:49.229Z,48.70
2018-08-19T01:54:52.347Z,40.13
2018-08-19T01:56:57.245Z,44.07
2018-08-19T01:59:00.374Z,44.73
2018-08-19T02:01:03.492Z,45.10
2018-08-19T02:03:06.706Z,49.07
2018-08-19T02:05:09.598Z,42.40
2018-08-19T02:07:14.696Z,45.77
2018-08-19T02:09:18.756Z,54.00
2018-08-19T02:11:29.239Z,47.93
2018-08-19T02:13:32.379Z,44.77
2018-08-19T02:15:35.556Z,47.97
2018-08-19T02:17:44.919Z,43.60
2018-08-19T02:19:48.032Z,44.97
2018-08-19T02:21:51.831Z,46.57
2018-08-19T02:23:54.955Z,42.93
2018-08-19T02:25:58.076Z,43.17
2018-08-19T02:28:01.785Z,44.57
2018-08-19T02:30:05.114Z,47.13
2018-08-19T02:32:09.288Z,46.87
2018-08-19T02:34:12.404Z,57.50
2018-08-19T02:36:15.514Z,43.27
2018-08-19T02:38:18.835Z,52.60
2018-08-19T02:40:29.366Z,51.17
2018-08-19T02:42:32.695Z,54.03
2018-08-19T02:44:35.815Z,48.70
2018-08-19T02:46:38.936Z,55.90
2018-08-19T02:48:46.760Z,48.10
2018-08-19T02:50:49.893Z,64.20
2018-08-19T02:52:53.004Z,53.77
2018-08-19T02:54:57.543Z,55.13
2018-08-19T02:57:00.648Z,54.93
2018-08-19T02:59:03.943Z,64.53
2018-08-19T03:01:07.052Z,54.60
2018-08-19T03:03:10.159Z,52.53
2018-08-19T03:05:14.397Z,62.20
2018-08-19T03:07:17.583Z,52.70
2018-08-19T03:09:20.684Z,71.03
2018-08-19T03:11:23.779Z,54.67
2018-08-19T03:13:26.900Z,50.77
2018-08-19T03:15:30.002Z,59.03
2018-08-19T03:17:33.118Z,49.90
2018-08-19T03:19:36.228Z,57.60
2018-08-19T03:21:39.341Z,54.20
2018-08-19T03:23:42.480Z,62.63
2018-08-19T03:25:45.580Z,48.90
2018-08-19T03:27:48.688Z,51.33
2018-08-19T03:29:52.714Z,58.93
2018-08-19T03:32:01.259Z,65.77
2018-08-19T03:34:04.404Z,75.33
2018-08-19T03:36:07.999Z,67.43
2018-08-19T03:38:13.914Z,58.80
2018-08-19T03:40:17.032Z,60.83
2018-08-19T03:42:20.121Z,48.50
2018-08-19T03:44:23.236Z,55.87
2018-08-19T03:46:27.225Z,67.43
2018-08-19T03:48:30.340Z,68.67
2018-08-19T03:50:36.048Z,64.23
2018-08-19T03:52:40.656Z,59.10
2018-08-19T03:54:44.724Z,58.53
2018-08-19T03:56:47.835Z,66.13
2018-08-19T03:58:51.774Z,54.47
2018-08-19T04:00:54.883Z,59.43
2018-08-19T04:02:58.028Z,70.13
2018-08-19T04:05:01.135Z,59.27
2018-08-19T04:07:04.284Z,74.43
2018-08-19T04:09:07.544Z,65.60
2018-08-19T04:11:10.674Z,65.03
2018-08-19T04:13:27.532Z,77.53
2018-08-19T04:15:30.655Z,68.57
2018-08-19T04:17:33.763Z,55.73
2018-08-19T04:19:36.869Z,66.30
2018-08-19T04:21:39.968Z,79.27
2018-08-19T04:23:46.128Z,69.23
2018-08-19T04:25:49.220Z,73.47
2018-08-19T04:27:52.302Z,61.97
2018-08-19T04:29:55.403Z,71.07
2018-08-19T04:31:58.497Z,73.57
2018-08-19T04:34:01.630Z,79.53
2018-08-19T04:36:04.715Z,64.20
2018-08-19T04:38:07.823Z,63.53
2018-08-19T04:40:10.915Z,60.03
2018-08-19T04:42:14.108Z,58.13
2018-08-19T04:44:17.147Z,67.70
2018-08-19T04:46:20.243Z,51.80
2018-08-19T04:48:24.379Z,54.93
2018-08-19T04:50:27.487Z,47.23
2018-08-19T04:52:32.287Z,40.67
2018-08-19T04:54:35.391Z,43.57
2018-08-19T04:56:38.487Z,43.70
2018-08-19T04:58:41.591Z,43.60
2018-08-19T05:00:44.709Z,36.83
2018-08-19T05:02:47.812Z,37.80
2018-08-19T05:04:50.779Z,35.33
2018-08-19T05:06:53.636Z,39.53
2018-08-19T05:08:56.751Z,49.23
2018-08-19T05:10:59.843Z,36.53
2018-08-19T05:13:02.947Z,26.90
2018-08-19T05:15:06.047Z,35.13
2018-08-19T05:17:09.143Z,39.73
2018-08-19T05:19:12.247Z,29.13
2018-08-19T05:21:15.355Z,30.73
2018-08-19T05:23:18.451Z,28.07
2018-08-19T05:25:21.575Z,33.63
2018-08-19T05:27:24.675Z,31.93
2018-08-19T05:29:27.795Z,26.13
2018-08-19T05:31:31.066Z,34.47
2018-08-19T05:33:34.163Z,33.20
2018-08-19T05:35:37.368Z,34.13
2018-08-19T05:37:40.456Z,42.23
2018-08-19T05:39:50.811Z,30.83
2018-08-19T05:42:03.197Z,27.37
2018-08-19T05:44:06.291Z,27.27
2018-08-19T05:46:09.406Z,29.37
2018-08-19T05:48:12.559Z,27.90
2018-08-19T05:50:15.649Z,29.30
2018-08-19T05:52:21.694Z,26.80
2018-08-19T05:54:24.800Z,27.53
2018-08-19T05:56:27.891Z,24.20
2018-08-19T05:58:30.987Z,30.83
2018-08-19T06:00:34.104Z,31.33
2018-08-19T06:02:42.195Z,33.37
2018-08-19T06:04:45.432Z,25.90
2018-08-19T06:06:49.132Z,36.53
2018-08-19T06:08:53.479Z,27.67
2018-08-19T06:10:56.586Z,29.70
2018-08-19T06:12:59.693Z,23.73
2018-08-19T06:15:02.906Z,37.87
2018-08-19T06:17:06.016Z,33.37
2018-08-19T06:19:09.131Z,21.43
2018-08-19T06:21:12.219Z,15.73
2018-08-19T06:23:15.319Z,34.47
2018-08-19T06:25:18.473Z,23.20
2018-08-19T06:27:22.392Z,17.57
2018-08-19T06:29:42.393Z,29.80
2018-08-19T06:31:45.492Z,22.53
2018-08-19T06:33:48.595Z,23.57
2018-08-19T06:35:51.704Z,30.43
2018-08-19T06:37:54.808Z,17.13
2018-08-19T06:39:57.917Z,23.00
2018-08-19T06:42:01.012Z,14.90
2018-08-19T06:44:04.207Z,19.27
2018-08-19T06:46:07.658Z,21.43
2018-08-19T06:48:10.767Z,31.87
2018-08-19T06:50:21.321Z,21.60
2018-08-19T06:52:25.043Z,21.90
2018-08-19T06:54:28.155Z,23.10
2018-08-19T06:56:31.271Z,28.63
2018-08-19T06:58:34.363Z,21.67
2018-08-19T07:00:37.468Z,22.97
2018-08-19T07:02:40.487Z,23.93
2018-08-19T07:04:44.686Z,22.27
2018-08-19T07:06:47.846Z,21.67
2018-08-19T07:08:50.943Z,18.77
2018-08-19T07:10:54.034Z,22.67
2018-08-19T07:13:01.375Z,20.80
2018-08-19T07:15:05.207Z,18.63
2018-08-19T07:17:08.291Z,14.80
2018-08-19T07:19:11.383Z,22.57
2018-08-19T07:21:14.480Z,20.60
2018-08-19T07:23:17.568Z,18.37
2018-08-19T07:25:20.552Z,15.30
2018-08-19T07:27:23.624Z,17.10
2018-08-19T07:29:28.100Z,13.77
2018-08-19T07:31:31.216Z,14.50
2018-08-19T07:33:34.304Z,12.67
2018-08-19T07:35:37.495Z,15.10
2018-08-19T07:37:41.068Z,14.60
2018-08-19T07:39:49.588Z,13.70
2018-08-19T07:41:52.679Z,12.30
2018-08-19T07:43:55.886Z,16.50
2018-08-19T07:45:58.959Z,8.13
2018-08-19T07:48:02.062Z,16.70
2018-08-19T07:50:05.809Z,15.07
2018-08-19T07:52:08.914Z,20.70
2018-08-19T07:54:12.007Z,14.10
2018-08-19T07:56:15.329Z,23.93
2018-08-19T07:58:29.544Z,9.67
2018-08-19T08:00:38.774Z,14.60
2018-08-19T08:02:41.880Z,10.50
2018-08-19T08:04:45.464Z,17.33
2018-08-19T08:06:48.564Z,12.77
2018-08-19T08:08:51.651Z,15.53
2018-08-19T08:10:54.780Z,9.90
2018-08-19T08:13:03.229Z,9.73
2018-08-19T08:15:06.775Z,9.27
2018-08-19T08:17:09.899Z,12.63
2018-08-19T08:19:12.995Z,8.93
2018-08-19T08:21:16.195Z,16.03
2018-08-19T08:23:21.399Z,23.43
2018-08-19T08:25:24.496Z,11.50
2018-08-19T08:27:27.894Z,16.80
2018-08-19T08:29:31.012Z,14.50
2018-08-19T08:31:41.539Z,86.33
2018-08-19T08:33:44.649Z,12.50
2018-08-19T08:35:54.993Z,28.40
2018-08-19T08:37:58.111Z,18.00
2018-08-19T08:40:06.735Z,36.10
2018-08-19T08:42:09.845Z,8.97
2018-08-19T08:44:12.948Z,13.83
2018-08-19T08:46:16.256Z,10.77
2018-08-19T08:48:19.341Z,10.10
2018-08-19T08:50:22.443Z,6.80
2018-08-19T08:52:25.578Z,9.90
2018-08-19T08:54:28.683Z,5.07
2018-08-19T08:56:31.882Z,11.57
2018-08-19T08:58:35.265Z,9.33
2018-08-19T09:00:38.121Z,9.90
2018-08-19T09:02:40.993Z,21.87
2018-08-19T09:04:43.905Z,8.10
2018-08-19T09:06:46.884Z,8.70
2018-08-19T09:08:49.750Z,11.60
2018-08-19T09:10:52.655Z,13.40
2018-08-19T09:12:56.304Z,13.83
2018-08-19T09:14:59.407Z,6.97
2018-08-19T09:17:02.607Z,9.30
2018-08-19T09:19:05.718Z,12.07
2018-08-19T09:21:08.864Z,10.50
2018-08-19T09:23:12.043Z,15.73
2018-08-19T09:25:15.088Z,14.33
2018-08-19T09:27:18.237Z,17.33
2018-08-19T09:29:21.304Z,15.50
2018-08-19T09:31:25.097Z,13.80
2018-08-19T09:33:29.081Z,22.00
2018-08-19T09:35:34.306Z,22.30
2018-08-19T09:37:37.484Z,18.73
2018-08-19T09:39:40.627Z,15.27
2018-08-19T09:41:43.767Z,12.73
2018-08-19T09:43:46.879Z,10.70
2018-08-19T09:45:49.992Z,17.10
2018-08-19T09:47:53.341Z,13.33
2018-08-19T09:49:56.196Z,12.30
2018-08-19T09:51:59.318Z,15.07
2018-08-19T09:54:02.479Z,16.70
2018-08-19T09:56:08.583Z,17.53
2018-08-19T09:58:17.735Z,14.80
2018-08-19T10:00:20.820Z,12.50
2018-08-19T10:02:23.924Z,12.40
2018-08-19T10:04:27.484Z,14.60
2018-08-19T10:06:30.588Z,10.93
2018-08-19T10:08:33.686Z,10.20
2018-08-19T10:10:37.556Z,16.33
2018-08-19T10:12:40.667Z,14.33
2018-08-19T10:14:43.760Z,14.30
2018-08-19T10:16:47.635Z,15.20
2018-08-19T10:18:50.727Z,12.77
2018-08-19T10:20:53.833Z,12.20
2018-08-19T10:22:57.632Z,11.93
2018-08-19T10:25:02.231Z,11.60
2018-08-19T10:27:07.324Z,11.90
2018-08-19T10:29:10.403Z,13.93
2018-08-19T10:31:17.889Z,15.83
2018-08-19T10:33:21.335Z,14.23
2018-08-19T10:35:27.427Z,12.77
2018-08-19T10:37:30.532Z,16.03
2018-08-19T10:39:33.628Z,21.27
2018-08-19T10:41:36.779Z,18.53
2018-08-19T10:43:39.883Z,15.83
2018-08-19T10:45:43.516Z,12.83
2018-08-19T10:47:46.624Z,15.23
2018-08-19T10:49:57.004Z,10.40
2018-08-19T10:52:00.100Z,15.97
2018-08-19T10:54:03.196Z,15.67
2018-08-19T10:56:06.315Z,13.73
2018-08-19T10:58:09.400Z,19.57
2018-08-19T11:00:15.739Z,15.17
2018-08-19T11:02:19.057Z,12.10
2018-08-19T11:04:22.159Z,16.07
2018-08-19T11:06:25.237Z,16.73
2018-08-19T11:08:28.316Z,25.20
2018-08-19T11:10:31.420Z,14.10
2018-08-19T11:12:34.519Z,13.63
2018-08-19T11:14:37.933Z,19.53
2018-08-19T11:16:40.843Z,15.43
2018-08-19T11:18:48.094Z,14.33
2018-08-19T11:20:53.682Z,17.80
2018-08-19T11:22:57.584Z,18.73
2018-08-19T11:25:00.669Z,20.80
2018-08-19T11:27:05.696Z,16.47
2018-08-19T11:29:08.783Z,13.97
2018-08-19T11:31:18.372Z,19.03
2018-08-19T11:33:32.991Z,21.40
2018-08-19T11:35:40.347Z,18.13
2018-08-19T11:37:43.440Z,10.23
2018-08-19T11:39:46.527Z,20.47
2018-08-19T11:41:49.613Z,16.77
2018-08-19T11:43:52.696Z,15.80
2018-08-19T11:45:55.784Z,17.67
2018-08-19T11:48:01.538Z,22.37
2018-08-19T11:50:05.079Z,27.80
2018-08-19T11:52:08.181Z,16.00
2018-08-19T11:54:12.787Z,16.80
2018-08-19T11:56:15.881Z,20.70
2018-08-19T11:58:34.904Z,21.37
2018-08-19T12:00:44.596Z,15.83
2018-08-19T12:02:47.689Z,19.07
2018-08-19T12:04:50.813Z,14.10
2018-08-19T12:06:53.859Z,17.07
2018-08-19T12:08:58.153Z,15.40
2018-08-19T12:11:14.633Z,23.27
2018-08-19T12:13:17.772Z,17.90
2018-08-19T12:15:20.860Z,13.10
2018-08-19T12:17:23.952Z,23.50
2018-08-19T12:19:28.247Z,13.70
2018-08-19T12:21:31.352Z,18.27
2018-08-19T12:23:34.432Z,15.07
2018-08-19T12:25:37.524Z,18.67
2018-08-19T12:27:40.677Z,16.30
2018-08-19T12:29:44.324Z,27.60
2018-08-19T12:31:47.187Z,19.27
2018-08-19T12:33:50.308Z,22.70
2018-08-19T12:35:54.455Z,17.20
2018-08-19T12:37:57.539Z,14.97
2018-08-19T12:40:01.136Z,16.57
2018-08-19T12:42:04.227Z,25.07
2018-08-19T12:44:07.459Z,17.60
2018-08-19T12:46:10.544Z,17.30
2018-08-19T12:48:13.627Z,15.17
2018-08-19T12:50:16.752Z,19.03
2018-08-19T12:52:21.600Z,24.17
2018-08-19T12:54:24.679Z,12.50
2018-08-19T12:56:27.763Z,14.53
2018-08-19T12:58:30.880Z,18.40
2018-08-19T13:00:33.980Z,19.30
2018-08-19T13:02:43.824Z,15.50
2018-08-19T13:04:46.928Z,15.77
2018-08-19T13:06:59.115Z,16.50
2018-08-19T13:09:02.219Z,16.17
2018-08-19T13:11:06.707Z,17.37
2018-08-19T13:13:09.835Z,21.33
2018-08-19T13:15:12.932Z,15.13
2018-08-19T13:17:16.024Z,17.67
2018-08-19T13:19:19.127Z,24.53
2018-08-19T13:21:22.211Z,16.67
2018-08-19T13:23:25.327Z,12.60
2018-08-19T13:25:28.587Z,15.10
2018-08-19T13:27:31.679Z,14.47
2018-08-19T13:29:35.352Z,15.80
2018-08-19T13:31:38.479Z,20.00
2018-08-19T13:33:41.579Z,13.97
2018-08-19T13:35:44.683Z,16.53
2018-08-19T13:37:47.792Z,24.80
2018-08-19T13:39:50.879Z,13.77
2018-08-19T13:41:54.063Z,19.23
2018-08-19T13:43:57.147Z,19.77
2018-08-19T13:46:00.332Z,14.10
2018-08-19T13:48:03.420Z,15.00
2018-08-19T13:50:06.563Z,16.33
2018-08-19T13:52:09.679Z,17.07
2018-08-19T13:54:12.784Z,26.03
2018-08-19T13:56:15.869Z,16.73
2018-08-19T13:58:18.943Z,15.83
2018-08-19T14:00:23.456Z,21.13
2018-08-19T14:02:26.639Z,16.50
2018-08-19T14:04:29.735Z,12.80
2018-08-19T14:06:32.807Z,19.23
2018-08-19T14:08:35.975Z,22.40
2018-08-19T14:10:39.063Z,27.73
2018-08-19T14:12:42.192Z,41.87
2018-08-19T14:14:45.279Z,18.57
2018-08-19T14:16:48.356Z,16.00
2018-08-19T14:18:51.451Z,23.73
2018-08-19T14:20:54.536Z,17.27
2018-08-19T14:22:57.616Z,15.13
2018-08-19T14:25:00.700Z,18.83
2018-08-19T14:27:03.819Z,13.83
2018-08-19T14:29:06.912Z,13.10
2018-08-19T14:31:09.996Z,14.73
2018-08-19T14:33:13.076Z,22.63
2018-08-19T14:35:16.175Z,13.40
2018-08-19T14:37:19.260Z,15.13
2018-08-19T14:39:22.352Z,21.37
2018-08-19T14:41:25.472Z,16.20
2018-08-19T14:43:28.567Z,24.10
2018-08-19T14:45:31.683Z,14.40
2018-08-19T14:47:34.783Z,16.77
2018-08-19T14:49:37.919Z,21.17
2018-08-19T14:51:52.629Z,11.23
2018-08-19T14:54:14.072Z,13.33
2018-08-19T14:56:17.256Z,17.77
2018-08-19T14:58:20.361Z,18.07
2018-08-19T15:00:23.454Z,18.93
2018-08-19T15:02:26.592Z,14.53
2018-08-19T15:04:29.680Z,18.83
2018-08-19T15:06:32.784Z,21.30
2018-08-19T15:08:35.960Z,16.00
2018-08-19T15:10:39.215Z,25.53
2018-08-19T15:12:42.332Z,16.13
2018-08-19T15:14:45.427Z,14.10
2018-08-19T15:16:49.532Z,16.67
2018-08-19T15:18:52.399Z,16.43
2018-08-19T15:20:55.503Z,18.33
2018-08-19T15:23:19.883Z,18.00
2018-08-19T15:25:23.004Z,21.43
2018-08-19T15:27:26.103Z,12.60
2018-08-19T15:29:31.414Z,17.10
2018-08-19T15:31:34.347Z,14.63
2018-08-19T15:33:37.238Z,19.13
2018-08-19T15:35:40.387Z,14.70
2018-08-19T15:37:43.250Z,16.23
2018-08-19T15:39:46.930Z,13.03
2018-08-19T15:41:49.793Z,21.50
2018-08-19T15:43:52.661Z,20.73
2018-08-19T15:45:55.542Z,26.20
2018-08-19T15:47:58.404Z,23.20
2018-08-19T15:50:11.563Z,15.50
2018-08-19T15:52:14.533Z,16.93
2018-08-19T15:54:17.398Z,10.87
2018-08-19T15:56:20.279Z,16.73
2018-08-19T15:58:23.251Z,16.33
2018-08-19T16:00:26.118Z,17.53
2018-08-19T16:02:28.981Z,22.60
2018-08-19T16:04:31.873Z,15.13
2018-08-19T16:06:34.747Z,18.40
2018-08-19T16:08:37.606Z,13.37
2018-08-19T16:10:40.482Z,15.40
2018-08-19T16:12:50.439Z,16.13
2018-08-19T16:14:53.302Z,16.53
2018-08-19T16:16:56.995Z,19.60
2018-08-19T16:18:59.936Z,17.93
2018-08-19T16:21:02.728Z,20.67
2018-08-19T16:23:05.588Z,11.43
2018-08-19T16:25:08.486Z,14.27
2018-08-19T16:27:11.371Z,11.70
2018-08-19T16:29:14.284Z,13.10
2018-08-19T16:31:17.155Z,15.87
2018-08-19T16:33:20.026Z,17.70
2018-08-19T16:35:22.994Z,18.40
2018-08-19T16:37:25.896Z,17.03
2018-08-19T16:39:28.809Z,21.07
2018-08-19T16:41:31.750Z,16.63
2018-08-19T16:43:34.625Z,11.30
2018-08-19T16:45:37.497Z,18.10
2018-08-19T16:47:40.376Z,14.57
2018-08-19T16:49:43.351Z,19.70
2018-08-19T16:51:46.246Z,10.77
2018-08-19T16:53:49.223Z,15.53
2018-08-19T16:55:52.200Z,15.40
2018-08-19T16:57:55.076Z,21.20
2018-08-19T16:59:57.959Z,16.50
2018-08-19T17:02:00.845Z,19.30
2018-08-19T17:04:03.816Z,13.30
2018-08-19T17:06:08.439Z,16.10
2018-08-19T17:08:11.311Z,14.47
2018-08-19T17:10:14.407Z,16.20
2018-08-19T17:12:17.314Z,14.90
2018-08-19T17:14:20.272Z,19.33
2018-08-19T17:16:23.259Z,15.23
2018-08-19T17:18:26.264Z,16.20
2018-08-19T17:20:29.227Z,23.47
2018-08-19T17:22:32.189Z,13.03
2018-08-19T17:24:35.210Z,11.90
2018-08-19T17:26:38.266Z,24.20
2018-08-19T17:28:41.341Z,16.37
2018-08-19T17:30:44.447Z,12.37
2018-08-19T17:32:49.976Z,11.33
2018-08-19T17:34:53.055Z,22.47
2018-08-19T17:36:56.186Z,12.13
2018-08-19T17:38:59.968Z,21.13
2018-08-19T17:41:03.554Z,14.27
2018-08-19T17:43:06.416Z,13.23
2018-08-19T17:45:09.273Z,21.40
2018-08-19T17:47:12.226Z,17.70
2018-08-19T17:49:19.498Z,17.70
2018-08-19T17:51:28.511Z,10.83
2018-08-19T17:53:31.469Z,16.17
2018-08-19T17:55:34.347Z,16.00
2018-08-19T17:57:37.244Z,13.50
2018-08-19T17:59:40.133Z,14.27
2018-08-19T18:01:43.942Z,13.27
2018-08-19T18:03:46.915Z,16.83
2018-08-19T18:05:49.866Z,14.50
2018-08-19T18:07:53.906Z,17.30
2018-08-19T18:09:57.935Z,17.13
2018-08-19T18:12:03.491Z,16.23
2018-08-19T18:14:06.363Z,21.30
2018-08-19T18:16:09.239Z,13.37
2018-08-19T18:18:12.180Z,16.57
2018-08-19T18:20:21.532Z,15.97
2018-08-19T18:22:24.403Z,23.97
2018-08-19T18:24:27.356Z,16.47
2018-08-19T18:26:30.247Z,17.13
2018-08-19T18:28:33.344Z,15.83
2018-08-19T18:30:36.435Z,15.53
2018-08-19T18:32:39.623Z,32.37
2018-08-19T18:34:42.720Z,18.80
2018-08-19T18:36:45.821Z,18.33
2018-08-19T18:38:48.912Z,15.43
2018-08-19T18:40:52.181Z,14.63
2018-08-19T18:42:55.279Z,16.13
2018-08-19T18:45:00.774Z,17.07
2018-08-19T18:47:03.876Z,17.33
2018-08-19T18:49:13.708Z,20.80
2018-08-19T18:51:16.795Z,12.70
2018-08-19T18:53:20.046Z,13.07
2018-08-19T18:55:23.063Z,12.30
2018-08-19T18:57:26.158Z,20.90
2018-08-19T18:59:29.538Z,11.83
2018-08-19T19:01:32.635Z,22.03
2018-08-19T19:03:36.879Z,21.73
2018-08-19T19:05:41.343Z,14.10
2018-08-19T19:07:44.444Z,13.17
2018-08-19T19:09:50.380Z,21.10
2018-08-19T19:11:53.478Z,12.43
2018-08-19T19:13:58.408Z,12.80
2018-08-19T19:16:01.499Z,16.00
2018-08-19T19:18:04.831Z,15.87
2018-08-19T19:20:08.000Z,18.30
2018-08-19T19:22:11.583Z,12.50
2018-08-19T19:24:14.679Z,12.80
2018-08-19T19:26:19.840Z,16.50
2018-08-19T19:28:22.923Z,20.43
2018-08-19T19:30:25.987Z,17.07
2018-08-19T19:32:29.080Z,15.80
2018-08-19T19:34:32.143Z,13.97
2018-08-19T19:36:35.235Z,12.63
2018-08-19T19:38:43.412Z,18.67
2018-08-19T19:40:46.504Z,14.43
2018-08-19T19:42:49.892Z,17.70
2018-08-19T19:44:53.021Z,15.63
2018-08-19T19:46:56.166Z,19.33
2018-08-19T19:48:59.249Z,20.73
2018-08-19T19:51:02.436Z,18.33
2018-08-19T19:53:05.548Z,15.83
2018-08-19T19:55:08.635Z,21.13
2018-08-19T19:57:11.724Z,13.43
2018-08-19T19:59:14.808Z,23.20
2018-08-19T20:01:18.156Z,14.30
2018-08-19T20:03:21.855Z,12.60
2018-08-19T20:05:25.855Z,44.57
2018-08-19T20:07:28.977Z,21.83
2018-08-19T20:09:34.894Z,14.53
2018-08-19T20:11:38.917Z,18.37
2018-08-19T20:13:42.410Z,11.60
2018-08-19T20:15:45.727Z,20.40
2018-08-19T20:17:48.820Z,12.90
2018-08-19T20:19:51.903Z,16.27
2018-08-19T20:21:54.987Z,13.17
2018-08-19T20:23:59.063Z,17.03
2018-08-19T20:26:02.156Z,18.53
2018-08-19T20:28:09.627Z,18.40
2018-08-19T20:30:12.716Z,21.57
2018-08-19T20:32:15.815Z,20.40
2018-08-19T20:34:18.911Z,15.67
2018-08-19T20:36:21.995Z,13.87
2018-08-19T20:38:25.563Z,18.57
2018-08-19T20:40:28.702Z,14.50
2018-08-19T20:42:31.771Z,16.63
2018-08-19T20:44:36.516Z,14.97
2018-08-19T20:46:43.881Z,15.20
2018-08-19T20:48:47.539Z,12.50
2018-08-19T20:50:50.918Z,22.27
2018-08-19T20:52:54.121Z,13.33
2018-08-19T20:54:57.215Z,15.43
2018-08-19T20:57:00.308Z,19.83
2018-08-19T20:59:03.420Z,19.87
2018-08-19T21:01:14.447Z,18.90
2018-08-19T21:03:17.561Z,14.13
2018-08-19T21:05:20.656Z,18.00
2018-08-19T21:07:23.753Z,15.20
2018-08-19T21:09:26.993Z,13.00
2018-08-19T21:11:30.095Z,10.50
2018-08-19T21:13:33.200Z,10.67
2018-08-19T21:15:37.051Z,14.77
2018-08-19T21:17:40.152Z,16.57
2018-08-19T21:19:43.255Z,12.40
2018-08-19T21:21:46.356Z,13.90
2018-08-19T21:23:49.455Z,13.33
2018-08-19T21:25:58.115Z,21.83
2018-08-19T21:28:01.217Z,17.47
2018-08-19T21:30:04.380Z,17.53
2018-08-19T21:32:07.399Z,20.10
2018-08-19T21:34:10.572Z,19.33
2018-08-19T21:36:13.663Z,13.53
2018-08-19T21:38:16.771Z,20.57
2018-08-19T21:40:26.263Z,17.13
2018-08-19T21:42:33.816Z,13.20
2018-08-19T21:44:36.919Z,17.97
2018-08-19T21:46:40.007Z,18.53
2018-08-19T21:48:43.117Z,20.93
2018-08-19T21:50:46.239Z,18.70
2018-08-19T21:53:05.255Z,24.93
2018-08-19T21:55:08.359Z,25.23
2018-08-19T21:57:11.451Z,21.57
2018-08-19T21:59:18.825Z,17.37
2018-08-19T22:01:21.919Z,16.53
2018-08-19T22:03:30.574Z,15.83
2018-08-19T22:05:34.608Z,18.73
2018-08-19T22:07:37.711Z,26.37
2018-08-19T22:09:41.107Z,18.93
2018-08-19T22:11:44.218Z,23.80
2018-08-19T22:13:47.334Z,20.20
2018-08-19T22:15:50.429Z,15.70
2018-08-19T22:17:53.871Z,18.20
2018-08-19T22:19:57.017Z,14.73
2018-08-19T22:22:00.087Z,17.47
2018-08-19T22:24:03.187Z,17.93
2018-08-19T22:26:06.471Z,24.37
2018-08-19T22:28:09.575Z,17.63
2018-08-19T22:30:12.685Z,18.50
2018-08-19T22:32:15.783Z,19.97
2018-08-19T22:34:18.887Z,20.20
2018-08-19T22:36:22.139Z,27.77
2018-08-19T22:38:25.231Z,23.20
2018-08-19T22:40:31.147Z,20.87
2018-08-19T22:42:34.235Z,25.77
2018-08-19T22:44:37.352Z,20.03
2018-08-19T22:46:40.452Z,22.30
2018-08-19T22:48:44.296Z,17.60
2018-08-19T22:50:47.414Z,15.50
2018-08-19T22:52:50.511Z,18.83
2018-08-19T22:54:55.872Z,24.37
2018-08-19T22:56:58.979Z,30.97
2018-08-19T22:59:02.071Z,20.30
2018-08-19T23:01:05.723Z,32.57
2018-08-19T23:03:09.307Z,19.10
2018-08-19T23:05:12.420Z,19.63
2018-08-19T23:07:15.521Z,28.00
2018-08-19T23:09:18.619Z,24.77
2018-08-19T23:11:21.716Z,18.60
2018-08-19T23:14:36.912Z,23.63
2018-08-19T23:16:40.045Z,20.07
2018-08-19T23:18:43.423Z,22.20
2018-08-19T23:20:46.532Z,22.23
2018-08-19T23:22:49.642Z,23.83
2018-08-19T23:24:52.798Z,22.53
2018-08-19T23:26:55.868Z,24.27
2018-08-19T23:28:58.976Z,19.83
2018-08-19T23:31:02.083Z,24.57
2018-08-19T23:33:05.512Z,17.20
2018-08-19T23:35:08.620Z,21.47
2018-08-19T23:37:11.712Z,22.87
2018-08-19T23:39:14.807Z,25.80
2018-08-19T23:41:18.008Z,28.97
2018-08-19T23:43:21.111Z,31.93
2018-08-19T23:45:24.231Z,22.23
2018-08-19T23:47:27.335Z,22.50
2018-08-19T23:49:30.443Z,25.33
2018-08-19T23:51:33.623Z,21.27
2018-08-19T23:53:36.727Z,26.07
2018-08-19T23:55:40.327Z,26.13
2018-08-19T23:57:43.414Z,24.30
2018-08-19T23:59:46.545Z,18.10
